Aérodrome :
LOGIN :

S'inscrire | Disclaimer

   EN    FR    IT 

 










Légende :    VFR   VFR Marginal   IFR   IFR Intensif   IFR Très Intensif
Visi : 
Plafond : 
>= 8 km
>= 3000ft
5 à 8 km
1000 à 3000 ft
1500m à 5 km
500 à 1000 ft
800 à 1500m
200 à 500 ft
< 800m
< 200 ft
Symboles :   Orages  Brouillard  Fortes neiges  Fortes précipitations  Vent > 20 kt
SIGMETs :   Divers  Orages  Givrage  Turbulence  Onde Orograph.  Cendres Volcan.







- Altitude de l'aérodrome : 240 ft
- Code IATA : VLC


LEVC - Valencia Manises

DERNIER METAR :
  • 251100Z 00000KT CAVOK 14/M01 Q1011 NOSIG

METARs EXPIRÉS :
  • 251030Z 00000KT CAVOK 13/M00 Q1011 NOSIG
  • 251000Z 00000KT CAVOK 12/01 Q1011 NOSIG
  • 250930Z VRB02KT CAVOK 10/01 Q1011 NOSIG
  • 250900Z 28003KT 250V310 CAVOK 08/01 Q1011 NOSIG
  • 250830Z 29003KT 260V320 CAVOK 07/03 Q1011 NOSIG

TAF TAF LEVC
Valide du 25 à 12h jusqu'au 26 à 12h UTC


251100Z 2512/2612 VRB03KT 9999 FEW030 TX16/2513Z TN02/2606Z
BECMG 2512/2514 12008KT
BECMG 2518/2520 28005KT
BECMG 2608/2610 09010KT
Pas de NOTAMs connus pour ce terrain.
2 SIGMETs publiés pour la FIR Barcelona (LECB) :
 
Turbulence forte
LECB SIGMET 3 VALID 251200/251600 LEVA
LECB BARCELONA FIR/UIR SEV TURB FCST WI N3901 W00111 - N3815 E00315 - N3743 E00159 - N3726 W00142 - N3901 W00111 FL200/300 MOV S 10KT NC=
Turbulence forte
LECB SIGMET 2 VALID 250800/251200 LEVA
LECB BARCELONA FIR/UIR SEV TURB FCST WI N4009 W00051 - N3828 E00348 - N3749 E00211 - N3801 W00130 - N4009 W00051 FL200/300 MOV S 10KT NC=



MET'MAP, la Météo Aéronautique d'un coup d'oeil ! - Copyright ORBIFLY Décembre 2007 - Disclaimer

ORBIFLY MET'MAP TEAM :

Programmation & Développement : Alexandra Zaïnal
Conception & Développement : Baudouin d'Aumeries
Co-Programmation & Développement : Marc-Olivier Méhu
Soutien technique & logistique : Manuel Goepfert

Contact : metmap@orbifly.com




SOURCES & CREDITS :

   NOAA